createdAt,value
2023-02-12T20:28:15.297Z,96717.00
2023-02-12T20:30:43.347Z,96723.59
2023-02-12T20:33:10.736Z,96709.09
2023-02-12T20:35:37.515Z,96715.19
2023-02-12T20:38:05.364Z,96707.47
2023-02-12T20:40:32.795Z,96723.44
2023-02-12T20:43:00.823Z,96714.66
2023-02-12T20:45:27.610Z,96720.91
2023-02-12T20:47:54.072Z,96714.38
2023-02-12T20:50:20.612Z,96719.91
2023-02-12T20:52:47.226Z,96717.16
2023-02-12T20:55:14.022Z,96716.84
2023-02-12T20:57:40.640Z,96718.66
2023-02-12T21:00:12.394Z,96721.06
2023-02-12T21:02:39.214Z,96721.81
2023-02-12T21:05:06.397Z,96717.22
2023-02-12T21:07:33.470Z,96724.38
2023-02-12T21:10:00.180Z,96724.84
2023-02-12T21:12:26.651Z,96732.19
2023-02-12T21:14:56.819Z,96723.69
2023-02-12T21:17:23.387Z,96729.97
2023-02-12T21:19:50.445Z,96731.13
2023-02-12T21:22:17.213Z,96728.31
2023-02-12T21:24:43.914Z,96730.50
2023-02-12T21:27:10.453Z,96729.38
2023-02-12T21:29:37.005Z,96731.91
2023-02-12T21:32:03.940Z,96727.38
2023-02-12T21:34:30.487Z,96738.09
2023-02-12T21:36:57.116Z,96732.78
2023-02-12T21:39:28.260Z,96731.88
2023-02-12T21:41:57.883Z,96728.69
2023-02-12T21:44:25.068Z,96734.13
2023-02-12T21:46:52.100Z,96730.22
2023-02-12T21:49:19.332Z,96728.00
2023-02-12T21:51:45.814Z,96742.72
2023-02-12T21:54:14.608Z,96729.09
2023-02-12T21:56:42.970Z,96731.59
2023-02-12T21:59:10.166Z,96735.22
2023-02-12T22:01:39.434Z,96737.63
2023-02-12T22:04:06.636Z,96740.25
2023-02-12T22:06:37.388Z,96734.09
2023-02-12T22:09:07.642Z,96735.00
2023-02-12T22:11:35.566Z,96742.34
2023-02-12T22:14:03.663Z,96739.66
2023-02-12T22:16:30.817Z,96744.09
2023-02-12T22:19:00.004Z,96742.19
2023-02-12T22:21:28.442Z,96743.25
2023-02-12T22:23:55.272Z,96753.34
2023-02-12T22:26:27.111Z,96742.78
2023-02-12T22:29:05.803Z,96746.16
2023-02-12T22:31:34.720Z,96740.16
2023-02-12T22:34:04.060Z,96743.25
2023-02-12T22:36:30.902Z,96742.47
2023-02-12T22:38:59.369Z,96749.66
2023-02-12T22:41:27.303Z,96758.09
2023-02-12T22:43:54.093Z,96752.34
2023-02-12T22:46:20.786Z,96756.06
2023-02-12T22:48:47.283Z,96746.72
2023-02-12T22:51:19.387Z,96747.94
2023-02-12T22:53:46.535Z,96756.66
2023-02-12T22:56:13.529Z,96763.69
2023-02-12T22:58:40.628Z,96761.63
2023-02-12T23:01:09.889Z,96767.41
2023-02-12T23:03:36.900Z,96771.13
2023-02-12T23:06:05.454Z,96770.47
2023-02-12T23:08:32.354Z,96778.72
2023-02-12T23:10:59.341Z,96781.06
2023-02-12T23:13:29.864Z,96784.09
2023-02-12T23:15:57.137Z,96793.50
2023-02-12T23:18:24.147Z,96797.09
2023-02-12T23:20:52.014Z,96786.72
2023-02-12T23:23:19.524Z,96796.53
2023-02-12T23:25:46.356Z,96800.22
2023-02-12T23:28:12.927Z,96809.59
2023-02-12T23:30:39.898Z,96795.28
2023-02-12T23:33:06.472Z,96792.25
2023-02-12T23:35:32.944Z,96795.00
2023-02-12T23:37:59.690Z,96794.16
2023-02-12T23:40:26.190Z,96803.69
2023-02-12T23:42:52.744Z,96798.31
2023-02-12T23:45:19.201Z,96794.16
2023-02-12T23:47:45.736Z,96796.53
2023-02-12T23:50:12.421Z,96792.94
2023-02-12T23:52:38.956Z,96792.09
2023-02-12T23:55:05.906Z,96800.34
2023-02-12T23:57:32.502Z,96790.53
2023-02-12T23:59:58.994Z,96790.78
